FDX91 PAJN-PANC
Flight info
| Callsign | FDX91 |
|---|---|
| Flight time | 3h 20m |
| Altitude | 6000 |
| Route | ASORT3 ASORT YESKA TED |
| Aircraft | C208/L-SDFGR/C |
Departure
| Time | 2026-04-15 22:38 |
|---|---|
| Airport | Juneau International Airport (PAJN) |
Arrival
| Time | 2026-04-16 01:58 |
|---|---|
| Airport | Ted Stevens Anchorage International Airport (PANC) |
| Time | Latitude | Longitude | Altitude | Speed | Heading |
|---|---|---|---|---|---|
| 2026-04-15 22:32 | 58.35585 | -134.56689 | 32 ft | 0 kts | 101° |
| 2026-04-15 22:34 | 58.35585 | -134.56688 | 32 ft | 0 kts | 101° |
| 2026-04-15 22:34 | 58.35576 | -134.56607 | 32 ft | 10 kts | 104° |
| 2026-04-15 22:35 | 58.35529 | -134.56435 | 32 ft | 17 kts | 120° |
| 2026-04-15 22:35 | 58.35423 | -134.56279 | 32 ft | 22 kts | 106° |
| 2026-04-15 22:35 | 58.35377 | -134.55952 | 32 ft | 28 kts | 101° |
| 2026-04-15 22:35 | 58.35322 | -134.55569 | 32 ft | 32 kts | 102° |
| 2026-04-15 22:36 | 58.35241 | -134.55293 | 32 ft | 2 kts | 184° |
| 2026-04-15 22:36 | 58.35230 | -134.55294 | 32 ft | 6 kts | 185° |
| 2026-04-15 22:36 | 58.35175 | -134.55369 | 31 ft | 11 kts | 300° |
| 2026-04-15 22:36 | 58.35210 | -134.55592 | 29 ft | 31 kts | 284° |
| 2026-04-15 22:37 | 58.35303 | -134.56260 | 33 ft | 71 kts | 283° |
| 2026-04-15 22:37 | 58.35459 | -134.57312 | 131 ft | 86 kts | 286° |
| 2026-04-15 22:37 | 58.35614 | -134.58407 | 364 ft | 86 kts | 276° |
| 2026-04-15 22:37 | 58.35660 | -134.59553 | 578 ft | 87 kts | 268° |
| 2026-04-15 22:38 | 58.35671 | -134.60737 | 776 ft | 95 kts | 272° |
| 2026-04-15 22:38 | 58.35697 | -134.62064 | 994 ft | 107 kts | 270° |
| 2026-04-15 22:38 | 58.35733 | -134.63563 | 1193 ft | 115 kts | 270° |
| 2026-04-15 22:38 | 58.35780 | -134.65114 | 1435 ft | 120 kts | 269° |
| 2026-04-15 22:39 | 58.35829 | -134.66717 | 1665 ft | 121 kts | 269° |
| 2026-04-15 22:39 | 58.35878 | -134.68330 | 1895 ft | 122 kts | 269° |
| 2026-04-15 22:39 | 58.35906 | -134.69397 | 2069 ft | 121 kts | 269° |
| 2026-04-15 22:39 | 58.35919 | -134.71503 | 2420 ft | 117 kts | 268° |
| 2026-04-15 22:40 | 58.35932 | -134.72518 | 2583 ft | 117 kts | 268° |
| 2026-04-15 22:40 | 58.35945 | -134.74070 | 2820 ft | 116 kts | 268° |
| 2026-04-15 22:40 | 58.35956 | -134.75600 | 3079 ft | 115 kts | 268° |
| 2026-04-15 22:41 | 58.35976 | -134.78620 | 3599 ft | 114 kts | 267° |
| 2026-04-15 22:41 | 58.35985 | -134.80125 | 3858 ft | 113 kts | 267° |
| 2026-04-15 22:41 | 58.35994 | -134.81604 | 4118 ft | 111 kts | 267° |
| 2026-04-15 22:41 | 58.36002 | -134.83072 | 4380 ft | 110 kts | 267° |
| 2026-04-15 22:42 | 58.36011 | -134.84526 | 4645 ft | 109 kts | 267° |
| 2026-04-15 22:42 | 58.36018 | -134.85961 | 4906 ft | 108 kts | 267° |
| 2026-04-15 22:42 | 58.36025 | -134.87376 | 5163 ft | 106 kts | 267° |
| 2026-04-15 22:42 | 58.36032 | -134.88760 | 5419 ft | 105 kts | 266° |
| 2026-04-15 22:43 | 58.36040 | -134.90137 | 5673 ft | 103 kts | 266° |
| 2026-04-15 22:43 | 58.36046 | -134.91482 | 5923 ft | 99 kts | 266° |
| 2026-04-15 22:43 | 58.36050 | -134.92879 | 5990 ft | 113 kts | 268° |
| 2026-04-15 22:43 | 58.36065 | -134.94452 | 5997 ft | 124 kts | 268° |
| 2026-04-15 22:44 | 58.36076 | -134.96144 | 5997 ft | 132 kts | 268° |
| 2026-04-15 22:44 | 58.36087 | -134.97943 | 5996 ft | 137 kts | 268° |
| 2026-04-15 22:44 | 58.36096 | -134.99780 | 5996 ft | 140 kts | 268° |
| 2026-04-15 22:44 | 58.36104 | -135.01653 | 5993 ft | 142 kts | 268° |
| 2026-04-15 22:45 | 58.36112 | -135.03542 | 5993 ft | 143 kts | 268° |
| 2026-04-15 22:45 | 58.36120 | -135.05439 | 5992 ft | 144 kts | 268° |
| 2026-04-15 22:45 | 58.36126 | -135.07338 | 5992 ft | 144 kts | 268° |
| 2026-04-15 22:45 | 58.36133 | -135.09247 | 6005 ft | 144 kts | 268° |
| 2026-04-15 22:46 | 58.36143 | -135.11188 | 5986 ft | 147 kts | 268° |
| 2026-04-15 22:46 | 58.36148 | -135.13090 | 5991 ft | 145 kts | 268° |
| 2026-04-15 22:46 | 58.36154 | -135.15046 | 5991 ft | 146 kts | 268° |
| 2026-04-15 22:46 | 58.36158 | -135.16960 | 5986 ft | 143 kts | 268° |
| 2026-04-15 22:47 | 58.36162 | -135.18856 | 5991 ft | 144 kts | 268° |
| 2026-04-15 22:47 | 58.36178 | -135.20759 | 5984 ft | 144 kts | 268° |
| 2026-04-15 22:47 | 58.36174 | -135.22657 | 5987 ft | 143 kts | 268° |
| 2026-04-15 22:47 | 58.36180 | -135.24543 | 5990 ft | 143 kts | 268° |
| 2026-04-15 22:48 | 58.36184 | -135.26451 | 6010 ft | 143 kts | 267° |
| 2026-04-15 22:48 | 58.36187 | -135.28368 | 6002 ft | 146 kts | 268° |
| 2026-04-15 22:48 | 58.36195 | -135.30311 | 6003 ft | 147 kts | 268° |
| 2026-04-15 22:48 | 58.36203 | -135.32239 | 5998 ft | 144 kts | 267° |
| 2026-04-15 22:49 | 58.36199 | -135.34137 | 6005 ft | 144 kts | 266° |
| 2026-04-15 22:49 | 58.36198 | -135.36056 | 6001 ft | 145 kts | 267° |
| 2026-04-15 22:49 | 58.36209 | -135.37980 | 6006 ft | 146 kts | 268° |
| 2026-04-15 22:49 | 58.36211 | -135.39913 | 6004 ft | 146 kts | 267° |
| 2026-04-15 22:50 | 58.36208 | -135.41866 | 5994 ft | 148 kts | 267° |
| 2026-04-15 22:50 | 58.36209 | -135.43818 | 5992 ft | 147 kts | 268° |
| 2026-04-15 22:50 | 58.36217 | -135.45750 | 5991 ft | 145 kts | 268° |
| 2026-04-15 22:50 | 58.36222 | -135.47664 | 5990 ft | 144 kts | 267° |
| 2026-04-15 22:51 | 58.36224 | -135.49571 | 5991 ft | 144 kts | 268° |
| 2026-04-15 22:51 | 58.36229 | -135.51470 | 5992 ft | 143 kts | 268° |
| 2026-04-15 22:51 | 58.36233 | -135.53373 | 5991 ft | 144 kts | 268° |
| 2026-04-15 22:51 | 58.36238 | -135.55275 | 5992 ft | 144 kts | 268° |
| 2026-04-15 22:52 | 58.36243 | -135.57187 | 5993 ft | 144 kts | 268° |
| 2026-04-15 22:52 | 58.36245 | -135.59083 | 5995 ft | 141 kts | 268° |
| 2026-04-15 22:52 | 58.36249 | -135.60949 | 5996 ft | 141 kts | 268° |
| 2026-04-15 22:52 | 58.36252 | -135.62818 | 5996 ft | 141 kts | 268° |
| 2026-04-15 22:53 | 58.36255 | -135.64689 | 5995 ft | 142 kts | 267° |
| 2026-04-15 22:53 | 58.36257 | -135.66571 | 5996 ft | 142 kts | 268° |
| 2026-04-15 22:53 | 58.36260 | -135.68457 | 5997 ft | 143 kts | 268° |
| 2026-04-15 22:53 | 58.36263 | -135.70353 | 5999 ft | 143 kts | 268° |
| 2026-04-15 22:54 | 58.36264 | -135.72251 | 6001 ft | 143 kts | 268° |
| 2026-04-15 22:54 | 58.36266 | -135.74148 | 6001 ft | 143 kts | 267° |
| 2026-04-15 22:54 | 58.36267 | -135.76039 | 6002 ft | 143 kts | 267° |
| 2026-04-15 22:54 | 58.36266 | -135.77928 | 6000 ft | 143 kts | 268° |
| 2026-04-15 22:55 | 58.36268 | -135.79815 | 6000 ft | 143 kts | 268° |
| 2026-04-15 22:55 | 58.36279 | -135.81704 | 5998 ft | 143 kts | 272° |
| 2026-04-15 22:55 | 58.36634 | -135.83490 | 5991 ft | 147 kts | 295° |
| 2026-04-15 22:55 | 58.37104 | -135.85210 | 5998 ft | 146 kts | 292° |
| 2026-04-15 22:56 | 58.37560 | -135.86946 | 6000 ft | 146 kts | 292° |
| 2026-04-15 22:56 | 58.38019 | -135.88677 | 6001 ft | 146 kts | 292° |
| 2026-04-15 22:56 | 58.38478 | -135.90411 | 6002 ft | 146 kts | 292° |
| 2026-04-15 22:56 | 58.38934 | -135.92133 | 6002 ft | 145 kts | 292° |
| 2026-04-15 22:57 | 58.39387 | -135.93843 | 6001 ft | 144 kts | 292° |
| 2026-04-15 22:57 | 58.39837 | -135.95544 | 5999 ft | 143 kts | 292° |
| 2026-04-15 22:57 | 58.40284 | -135.97241 | 5997 ft | 143 kts | 292° |
| 2026-04-15 22:57 | 58.40730 | -135.98928 | 5995 ft | 142 kts | 292° |
| 2026-04-15 22:58 | 58.41173 | -136.00609 | 5996 ft | 142 kts | 291° |
| 2026-04-15 22:58 | 58.41609 | -136.02260 | 5997 ft | 141 kts | 292° |
| 2026-04-15 22:58 | 58.42057 | -136.03963 | 5994 ft | 141 kts | 291° |
| 2026-04-15 22:58 | 58.42498 | -136.05637 | 5993 ft | 141 kts | 292° |
| 2026-04-15 22:59 | 58.42904 | -136.07324 | 5989 ft | 138 kts | 279° |
| 2026-04-15 22:59 | 58.42922 | -136.09112 | 6018 ft | 135 kts | 265° |
| 2026-04-15 22:59 | 58.42879 | -136.10920 | 5988 ft | 135 kts | 265° |
| 2026-04-15 22:59 | 58.42841 | -136.12671 | 6002 ft | 135 kts | 266° |
| 2026-04-15 23:00 | 58.42800 | -136.14524 | 6003 ft | 139 kts | 265° |
| 2026-04-15 23:00 | 58.42762 | -136.16373 | 6002 ft | 139 kts | 265° |
| 2026-04-15 23:00 | 58.42724 | -136.18182 | 6001 ft | 138 kts | 265° |
| 2026-04-15 23:00 | 58.42685 | -136.20013 | 6000 ft | 138 kts | 265° |
| 2026-04-15 23:01 | 58.42645 | -136.21857 | 6002 ft | 138 kts | 265° |
| 2026-04-15 23:01 | 58.42603 | -136.23690 | 6002 ft | 138 kts | 265° |
| 2026-04-15 23:01 | 58.42564 | -136.25494 | 5999 ft | 138 kts | 265° |
| 2026-04-15 23:01 | 58.42526 | -136.27323 | 6000 ft | 138 kts | 266° |
| 2026-04-15 23:02 | 58.42482 | -136.29151 | 6004 ft | 137 kts | 265° |
| 2026-04-15 23:02 | 58.42442 | -136.30978 | 6003 ft | 138 kts | 265° |
| 2026-04-15 23:02 | 58.42403 | -136.32823 | 6001 ft | 138 kts | 265° |
| 2026-04-15 23:02 | 58.42364 | -136.34637 | 6003 ft | 138 kts | 265° |
| 2026-04-15 23:03 | 58.42323 | -136.36474 | 6007 ft | 139 kts | 266° |
| 2026-04-15 23:03 | 58.42281 | -136.38342 | 5994 ft | 139 kts | 266° |
| 2026-04-15 23:03 | 58.42240 | -136.40152 | 5997 ft | 138 kts | 265° |
| 2026-04-15 23:03 | 58.42201 | -136.41976 | 5993 ft | 137 kts | 266° |
| 2026-04-15 23:04 | 58.42155 | -136.43809 | 6002 ft | 138 kts | 265° |
| 2026-04-15 23:04 | 58.42116 | -136.45657 | 5999 ft | 143 kts | 266° |
| 2026-04-15 23:04 | 58.42076 | -136.47554 | 6006 ft | 144 kts | 266° |
| 2026-04-15 23:04 | 58.42041 | -136.49467 | 6014 ft | 144 kts | 266° |
| 2026-04-15 23:05 | 58.41992 | -136.51370 | 5990 ft | 140 kts | 265° |
| 2026-04-15 23:05 | 58.41950 | -136.53225 | 5989 ft | 141 kts | 265° |
| 2026-04-15 23:05 | 58.41917 | -136.55043 | 5999 ft | 135 kts | 265° |
| 2026-04-15 23:05 | 58.41887 | -136.56875 | 6006 ft | 143 kts | 266° |
| 2026-04-15 23:06 | 58.41848 | -136.58768 | 5996 ft | 141 kts | 265° |
| 2026-04-15 23:06 | 58.41807 | -136.60613 | 6007 ft | 140 kts | 266° |
| 2026-04-15 23:06 | 58.41767 | -136.62486 | 6004 ft | 144 kts | 265° |
| 2026-04-15 23:06 | 58.41723 | -136.64385 | 6006 ft | 144 kts | 265° |
| 2026-04-15 23:07 | 58.41682 | -136.66280 | 6000 ft | 143 kts | 265° |
| 2026-04-15 23:07 | 58.41637 | -136.68176 | 5999 ft | 142 kts | 265° |
| 2026-04-15 23:07 | 58.41597 | -136.70058 | 5989 ft | 142 kts | 265° |
| 2026-04-15 23:07 | 58.41557 | -136.71932 | 5998 ft | 141 kts | 265° |
| 2026-04-15 23:08 | 58.41516 | -136.73809 | 5996 ft | 142 kts | 265° |
| 2026-04-15 23:08 | 58.41470 | -136.75691 | 5997 ft | 140 kts | 265° |
| 2026-04-15 23:08 | 58.41427 | -136.77557 | 6021 ft | 143 kts | 265° |
| 2026-04-15 23:08 | 58.41383 | -136.79460 | 6021 ft | 143 kts | 266° |
| 2026-04-15 23:09 | 58.41344 | -136.81342 | 6017 ft | 142 kts | 265° |
| 2026-04-15 23:09 | 58.41306 | -136.83210 | 6015 ft | 136 kts | 266° |
| 2026-04-15 23:09 | 58.41267 | -136.85028 | 6018 ft | 139 kts | 265° |
| 2026-04-15 23:09 | 58.41226 | -136.86874 | 6018 ft | 140 kts | 265° |
| 2026-04-15 23:10 | 58.41180 | -136.88728 | 6022 ft | 136 kts | 264° |
| 2026-04-15 23:10 | 58.41130 | -136.90546 | 6018 ft | 138 kts | 265° |
| 2026-04-15 23:10 | 58.41099 | -136.92343 | 6029 ft | 134 kts | 266° |
| 2026-04-15 23:10 | 58.41038 | -136.94162 | 6026 ft | 141 kts | 266° |
| 2026-04-15 23:11 | 58.40982 | -136.96067 | 6024 ft | 146 kts | 265° |
| 2026-04-15 23:11 | 58.40917 | -136.98000 | 6026 ft | 146 kts | 265° |
| 2026-04-15 23:11 | 58.40853 | -136.99933 | 6026 ft | 147 kts | 265° |
| 2026-04-15 23:11 | 58.40786 | -137.01873 | 6026 ft | 147 kts | 265° |
| 2026-04-15 23:12 | 58.40718 | -137.03830 | 6022 ft | 148 kts | 265° |
| 2026-04-15 23:12 | 58.40649 | -137.05786 | 6021 ft | 148 kts | 265° |
| 2026-04-15 23:12 | 58.40582 | -137.07737 | 6022 ft | 147 kts | 265° |
| 2026-04-15 23:12 | 58.40517 | -137.09680 | 6009 ft | 147 kts | 265° |
| 2026-04-15 23:13 | 58.40450 | -137.11625 | 6030 ft | 147 kts | 265° |
| 2026-04-15 23:13 | 58.40383 | -137.13573 | 6029 ft | 148 kts | 265° |
| 2026-04-15 23:13 | 58.40314 | -137.15538 | 6029 ft | 148 kts | 265° |
| 2026-04-15 23:13 | 58.40245 | -137.17491 | 6028 ft | 148 kts | 265° |
| 2026-04-15 23:14 | 58.40176 | -137.19445 | 6028 ft | 148 kts | 265° |
| 2026-04-15 23:14 | 58.40109 | -137.21399 | 6028 ft | 148 kts | 265° |
| 2026-04-15 23:14 | 58.40041 | -137.23348 | 6026 ft | 147 kts | 265° |
| 2026-04-15 23:14 | 58.39975 | -137.25294 | 6029 ft | 147 kts | 265° |
| 2026-04-15 23:15 | 58.39908 | -137.27246 | 6026 ft | 147 kts | 265° |
| 2026-04-15 23:15 | 58.39842 | -137.29183 | 6026 ft | 147 kts | 265° |
| 2026-04-15 23:15 | 58.39773 | -137.31127 | 6024 ft | 147 kts | 265° |
| 2026-04-15 23:15 | 58.39704 | -137.33065 | 6025 ft | 147 kts | 265° |
| 2026-04-15 23:16 | 58.39636 | -137.35007 | 6025 ft | 147 kts | 265° |
| 2026-04-15 23:16 | 58.39568 | -137.36948 | 6026 ft | 146 kts | 265° |
| 2026-04-15 23:16 | 58.39502 | -137.38912 | 6027 ft | 146 kts | 265° |
| 2026-04-15 23:16 | 58.39434 | -137.40841 | 6026 ft | 146 kts | 265° |
| 2026-04-15 23:17 | 58.39368 | -137.42777 | 6026 ft | 146 kts | 265° |
| 2026-04-15 23:17 | 58.39302 | -137.44709 | 6025 ft | 146 kts | 265° |
| 2026-04-15 23:17 | 58.39383 | -137.46629 | 6022 ft | 149 kts | 288° |
| 2026-04-15 23:17 | 58.39865 | -137.48392 | 6021 ft | 150 kts | 295° |
| 2026-04-15 23:18 | 58.40362 | -137.50144 | 6028 ft | 150 kts | 294° |
| 2026-04-15 23:18 | 58.40858 | -137.51887 | 6028 ft | 150 kts | 295° |
| 2026-04-15 23:18 | 58.41357 | -137.53642 | 6029 ft | 150 kts | 295° |
| 2026-04-15 23:18 | 58.41847 | -137.55368 | 6029 ft | 151 kts | 295° |
| 2026-04-15 23:19 | 58.42354 | -137.57148 | 6030 ft | 151 kts | 295° |
| 2026-04-15 23:19 | 58.42855 | -137.58909 | 6023 ft | 151 kts | 295° |
| 2026-04-15 23:19 | 58.43353 | -137.60669 | 6017 ft | 151 kts | 294° |
| 2026-04-15 23:19 | 58.43684 | -137.61834 | 6029 ft | 151 kts | 295° |
| 2026-04-15 23:20 | 58.44180 | -137.63585 | 6034 ft | 151 kts | 294° |
| 2026-04-15 23:20 | 58.44681 | -137.65348 | 6034 ft | 151 kts | 294° |
| 2026-04-15 23:20 | 58.45177 | -137.67105 | 6029 ft | 151 kts | 294° |
| 2026-04-15 23:20 | 58.45673 | -137.68869 | 6028 ft | 152 kts | 294° |
| 2026-04-15 23:21 | 58.46177 | -137.70647 | 6032 ft | 152 kts | 295° |
| 2026-04-15 23:21 | 58.46678 | -137.72420 | 6031 ft | 152 kts | 295° |
| 2026-04-15 23:21 | 58.47178 | -137.74188 | 6033 ft | 152 kts | 294° |
| 2026-04-15 23:21 | 58.47680 | -137.75969 | 6032 ft | 152 kts | 295° |
| 2026-04-15 23:22 | 58.48179 | -137.77742 | 6026 ft | 152 kts | 294° |
| 2026-04-15 23:22 | 58.48682 | -137.79524 | 6030 ft | 152 kts | 295° |
| 2026-04-15 23:22 | 58.49180 | -137.81300 | 6032 ft | 152 kts | 294° |
| 2026-04-15 23:22 | 58.49680 | -137.83074 | 6032 ft | 151 kts | 294° |
| 2026-04-15 23:23 | 58.50176 | -137.84846 | 6029 ft | 151 kts | 294° |
| 2026-04-15 23:23 | 58.50675 | -137.86619 | 6030 ft | 152 kts | 294° |
| 2026-04-15 23:23 | 58.51174 | -137.88399 | 6026 ft | 152 kts | 294° |
| 2026-04-15 23:23 | 58.51673 | -137.90181 | 6030 ft | 152 kts | 294° |
| 2026-04-15 23:24 | 58.52175 | -137.91973 | 6022 ft | 152 kts | 294° |
| 2026-04-15 23:24 | 58.52673 | -137.93753 | 6027 ft | 152 kts | 294° |
| 2026-04-15 23:24 | 58.53175 | -137.95547 | 6020 ft | 152 kts | 294° |
| 2026-04-15 23:24 | 58.53673 | -137.97335 | 6027 ft | 152 kts | 294° |
| 2026-04-15 23:25 | 58.54172 | -137.99117 | 6020 ft | 152 kts | 294° |
| 2026-04-15 23:25 | 58.54669 | -138.00901 | 6021 ft | 152 kts | 294° |
| 2026-04-15 23:25 | 58.55168 | -138.02691 | 6025 ft | 152 kts | 294° |
| 2026-04-15 23:25 | 58.55664 | -138.04476 | 6026 ft | 152 kts | 294° |
| 2026-04-15 23:26 | 58.56175 | -138.06312 | 6022 ft | 152 kts | 294° |
| 2026-04-15 23:26 | 58.56667 | -138.08079 | 6027 ft | 152 kts | 294° |
| 2026-04-15 23:26 | 58.57164 | -138.09867 | 6027 ft | 152 kts | 294° |
| 2026-04-15 23:26 | 58.57660 | -138.11656 | 6023 ft | 152 kts | 294° |
| 2026-04-15 23:27 | 58.58149 | -138.13419 | 6012 ft | 152 kts | 294° |
| 2026-04-15 23:27 | 58.58641 | -138.15197 | 6022 ft | 152 kts | 294° |
| 2026-04-15 23:27 | 58.59139 | -138.16996 | 6017 ft | 152 kts | 294° |
| 2026-04-15 23:27 | 58.59634 | -138.18781 | 6019 ft | 152 kts | 294° |
| 2026-04-15 23:28 | 58.60127 | -138.20567 | 6019 ft | 152 kts | 294° |
| 2026-04-15 23:28 | 58.60622 | -138.22355 | 6016 ft | 152 kts | 294° |
| 2026-04-15 23:28 | 58.61118 | -138.24154 | 6012 ft | 152 kts | 294° |
| 2026-04-15 23:28 | 58.61613 | -138.25949 | 6023 ft | 152 kts | 294° |
| 2026-04-15 23:29 | 58.62108 | -138.27742 | 6025 ft | 152 kts | 294° |
| 2026-04-15 23:29 | 58.62602 | -138.29537 | 6026 ft | 152 kts | 294° |
| 2026-04-15 23:29 | 58.63097 | -138.31336 | 6025 ft | 152 kts | 294° |
| 2026-04-15 23:29 | 58.63589 | -138.33127 | 6015 ft | 152 kts | 294° |
| 2026-04-15 23:30 | 58.64083 | -138.34926 | 6016 ft | 152 kts | 294° |
| 2026-04-15 23:30 | 58.64577 | -138.36724 | 6019 ft | 152 kts | 294° |
| 2026-04-15 23:30 | 58.65069 | -138.38519 | 6019 ft | 152 kts | 294° |
| 2026-04-15 23:30 | 58.65563 | -138.40318 | 6014 ft | 152 kts | 294° |
| 2026-04-15 23:31 | 58.66055 | -138.42115 | 6019 ft | 152 kts | 294° |
| 2026-04-15 23:31 | 58.66546 | -138.43911 | 6015 ft | 152 kts | 294° |
| 2026-04-15 23:31 | 58.67038 | -138.45710 | 6020 ft | 152 kts | 294° |
| 2026-04-15 23:31 | 58.67531 | -138.47511 | 6020 ft | 152 kts | 294° |
| 2026-04-15 23:32 | 58.68023 | -138.49313 | 6017 ft | 152 kts | 294° |
| 2026-04-15 23:32 | 58.68513 | -138.51114 | 6023 ft | 152 kts | 294° |
| 2026-04-15 23:32 | 58.69005 | -138.52916 | 6024 ft | 152 kts | 294° |
| 2026-04-15 23:32 | 58.69495 | -138.54718 | 6019 ft | 152 kts | 294° |
| 2026-04-15 23:33 | 58.69986 | -138.56519 | 6020 ft | 152 kts | 294° |
| 2026-04-15 23:33 | 58.70477 | -138.58326 | 6014 ft | 152 kts | 294° |
| 2026-04-15 23:33 | 58.70968 | -138.60129 | 6018 ft | 152 kts | 294° |
| 2026-04-15 23:33 | 58.71457 | -138.61934 | 6021 ft | 152 kts | 294° |
| 2026-04-15 23:34 | 58.71947 | -138.63738 | 6020 ft | 152 kts | 294° |
| 2026-04-15 23:34 | 58.72436 | -138.65543 | 6023 ft | 152 kts | 294° |
| 2026-04-15 23:34 | 58.72924 | -138.67343 | 6019 ft | 152 kts | 294° |
| 2026-04-15 23:36 | 58.75859 | -138.78213 | 6018 ft | 153 kts | 294° |
| 2026-04-15 23:36 | 58.76349 | -138.80030 | 6018 ft | 153 kts | 294° |
| 2026-04-15 23:36 | 58.76839 | -138.81853 | 6016 ft | 153 kts | 294° |
| 2026-04-15 23:36 | 58.77322 | -138.83645 | 6013 ft | 153 kts | 294° |
| 2026-04-15 23:37 | 58.77818 | -138.85495 | 6012 ft | 153 kts | 294° |
| 2026-04-15 23:37 | 58.78306 | -138.87314 | 6015 ft | 153 kts | 293° |
| 2026-04-15 23:37 | 58.78793 | -138.89128 | 6016 ft | 153 kts | 294° |
| 2026-04-15 23:37 | 58.79284 | -138.90958 | 6017 ft | 153 kts | 294° |
| 2026-04-15 23:38 | 58.79771 | -138.92778 | 6019 ft | 153 kts | 294° |
| 2026-04-15 23:38 | 58.80260 | -138.94606 | 6020 ft | 153 kts | 293° |
| 2026-04-15 23:38 | 58.80748 | -138.96429 | 6020 ft | 153 kts | 294° |
| 2026-04-15 23:38 | 58.81236 | -138.98254 | 6014 ft | 153 kts | 293° |
| 2026-04-15 23:39 | 58.81722 | -139.00076 | 6014 ft | 153 kts | 293° |
| 2026-04-15 23:39 | 58.82209 | -139.01901 | 6014 ft | 153 kts | 293° |
| 2026-04-15 23:39 | 58.82694 | -139.03723 | 6013 ft | 153 kts | 294° |
| 2026-04-15 23:39 | 58.83180 | -139.05546 | 6013 ft | 152 kts | 293° |
| 2026-04-15 23:40 | 58.83664 | -139.07365 | 6017 ft | 153 kts | 293° |
| 2026-04-15 23:40 | 58.84149 | -139.09190 | 6013 ft | 153 kts | 293° |
| 2026-04-15 23:40 | 58.84634 | -139.11013 | 6017 ft | 153 kts | 293° |
| 2026-04-15 23:40 | 58.85118 | -139.12836 | 6014 ft | 153 kts | 293° |
| 2026-04-15 23:41 | 58.85603 | -139.14666 | 6017 ft | 153 kts | 293° |
| 2026-04-15 23:41 | 58.86080 | -139.16467 | 6016 ft | 153 kts | 293° |
| 2026-04-15 23:41 | 58.86570 | -139.18321 | 6016 ft | 153 kts | 293° |
| 2026-04-15 23:41 | 58.87054 | -139.20145 | 6008 ft | 153 kts | 293° |
| 2026-04-15 23:42 | 58.87538 | -139.21977 | 6011 ft | 153 kts | 293° |
| 2026-04-15 23:42 | 58.88016 | -139.23787 | 6011 ft | 153 kts | 293° |
| 2026-04-15 23:42 | 58.88499 | -139.25616 | 6011 ft | 153 kts | 293° |
| 2026-04-15 23:42 | 58.88983 | -139.27451 | 6012 ft | 153 kts | 293° |
| 2026-04-15 23:43 | 58.89466 | -139.29284 | 6014 ft | 153 kts | 293° |
| 2026-04-15 23:43 | 58.89949 | -139.31119 | 6023 ft | 153 kts | 293° |
| 2026-04-15 23:43 | 58.90433 | -139.32962 | 6017 ft | 154 kts | 293° |
| 2026-04-15 23:43 | 58.90919 | -139.34809 | 6018 ft | 154 kts | 293° |
| 2026-04-15 23:44 | 58.91406 | -139.36659 | 6016 ft | 154 kts | 293° |
| 2026-04-15 23:44 | 58.91893 | -139.38515 | 6017 ft | 154 kts | 293° |
| 2026-04-15 23:44 | 58.92377 | -139.40362 | 6017 ft | 154 kts | 293° |
| 2026-04-15 23:44 | 58.92862 | -139.42212 | 6012 ft | 154 kts | 293° |
| 2026-04-15 23:45 | 58.93345 | -139.44061 | 6012 ft | 154 kts | 293° |
| 2026-04-15 23:45 | 58.93829 | -139.45908 | 6008 ft | 154 kts | 293° |
| 2026-04-15 23:45 | 58.94317 | -139.47775 | 6011 ft | 155 kts | 293° |
| 2026-04-15 23:45 | 58.94801 | -139.49630 | 6010 ft | 154 kts | 293° |
| 2026-04-15 23:46 | 58.95286 | -139.51487 | 6008 ft | 154 kts | 292° |
| 2026-04-15 23:46 | 58.95768 | -139.53340 | 6009 ft | 154 kts | 292° |
| 2026-04-15 23:46 | 58.96252 | -139.55194 | 6008 ft | 154 kts | 292° |
| 2026-04-15 23:46 | 58.96733 | -139.57046 | 6008 ft | 154 kts | 293° |
| 2026-04-15 23:47 | 58.97216 | -139.58899 | 6005 ft | 154 kts | 293° |
| 2026-04-15 23:47 | 58.97697 | -139.60753 | 6005 ft | 154 kts | 293° |
| 2026-04-15 23:47 | 58.98177 | -139.62601 | 6004 ft | 154 kts | 293° |
| 2026-04-15 23:47 | 58.98658 | -139.64457 | 6002 ft | 154 kts | 292° |
| 2026-04-15 23:48 | 58.99139 | -139.66308 | 6002 ft | 154 kts | 293° |
| 2026-04-15 23:48 | 58.99617 | -139.68158 | 6002 ft | 154 kts | 292° |
| 2026-04-15 23:48 | 59.00096 | -139.70010 | 6003 ft | 154 kts | 293° |
| 2026-04-15 23:48 | 59.00576 | -139.71865 | 5999 ft | 154 kts | 292° |
| 2026-04-15 23:49 | 59.01056 | -139.73721 | 6005 ft | 154 kts | 292° |
| 2026-04-15 23:49 | 59.01535 | -139.75576 | 6005 ft | 154 kts | 292° |
| 2026-04-15 23:49 | 59.02014 | -139.77434 | 6006 ft | 154 kts | 292° |
| 2026-04-15 23:49 | 59.02493 | -139.79292 | 6007 ft | 154 kts | 292° |
| 2026-04-15 23:50 | 59.02971 | -139.81149 | 6009 ft | 154 kts | 292° |
| 2026-04-15 23:50 | 59.03450 | -139.83012 | 6009 ft | 154 kts | 293° |
| 2026-04-15 23:50 | 59.03928 | -139.84870 | 6009 ft | 154 kts | 292° |
| 2026-04-15 23:51 | 59.04881 | -139.88586 | 6001 ft | 154 kts | 292° |
| 2026-04-15 23:51 | 59.05359 | -139.90446 | 6007 ft | 154 kts | 292° |
| 2026-04-15 23:51 | 59.05836 | -139.92312 | 6007 ft | 154 kts | 293° |
| 2026-04-15 23:51 | 59.06313 | -139.94174 | 6007 ft | 154 kts | 292° |
| 2026-04-15 23:52 | 59.06790 | -139.96037 | 6007 ft | 154 kts | 292° |
| 2026-04-15 23:52 | 59.07266 | -139.97901 | 6007 ft | 154 kts | 293° |
| 2026-04-15 23:52 | 59.07740 | -139.99761 | 6006 ft | 154 kts | 293° |
| 2026-04-15 23:52 | 59.08213 | -140.01615 | 6007 ft | 154 kts | 293° |
| 2026-04-15 23:53 | 59.08690 | -140.03482 | 6003 ft | 154 kts | 292° |
| 2026-04-15 23:53 | 59.09166 | -140.05350 | 6005 ft | 154 kts | 292° |
| 2026-04-15 23:53 | 59.09643 | -140.07223 | 6004 ft | 154 kts | 293° |
| 2026-04-15 23:53 | 59.10117 | -140.09089 | 5999 ft | 154 kts | 293° |
| 2026-04-15 23:54 | 59.10590 | -140.10955 | 5998 ft | 154 kts | 292° |
| 2026-04-15 23:54 | 59.11065 | -140.12824 | 5998 ft | 154 kts | 293° |
| 2026-04-15 23:54 | 59.11540 | -140.14698 | 5998 ft | 154 kts | 293° |
| 2026-04-15 23:54 | 59.12015 | -140.16571 | 5998 ft | 154 kts | 292° |
| 2026-04-15 23:55 | 59.12489 | -140.18442 | 5998 ft | 154 kts | 292° |
| 2026-04-15 23:55 | 59.12963 | -140.20315 | 5998 ft | 154 kts | 292° |
| 2026-04-15 23:55 | 59.13435 | -140.22184 | 5998 ft | 154 kts | 292° |
| 2026-04-15 23:55 | 59.13901 | -140.24030 | 5999 ft | 154 kts | 292° |
| 2026-04-15 23:56 | 59.14374 | -140.25901 | 6002 ft | 154 kts | 292° |
| 2026-04-15 23:56 | 59.14845 | -140.27774 | 6000 ft | 154 kts | 292° |
| 2026-04-15 23:56 | 59.15320 | -140.29656 | 6001 ft | 155 kts | 292° |
| 2026-04-15 23:56 | 59.15794 | -140.31537 | 5993 ft | 155 kts | 292° |
| 2026-04-15 23:57 | 59.16268 | -140.33420 | 5990 ft | 155 kts | 292° |
| 2026-04-15 23:57 | 59.16739 | -140.35300 | 5990 ft | 154 kts | 292° |
| 2026-04-15 23:57 | 59.17212 | -140.37182 | 5989 ft | 154 kts | 292° |
| 2026-04-15 23:57 | 59.17682 | -140.39059 | 5990 ft | 154 kts | 292° |
| 2026-04-15 23:58 | 59.18154 | -140.40939 | 5990 ft | 155 kts | 292° |
| 2026-04-15 23:58 | 59.18627 | -140.42829 | 5993 ft | 155 kts | 292° |
| 2026-04-15 23:58 | 59.19100 | -140.44719 | 5992 ft | 155 kts | 293° |
| 2026-04-15 23:58 | 59.19574 | -140.46618 | 5991 ft | 156 kts | 292° |
| 2026-04-15 23:59 | 59.20049 | -140.48516 | 5992 ft | 156 kts | 293° |
| 2026-04-15 23:59 | 59.20523 | -140.50416 | 5993 ft | 156 kts | 293° |
| 2026-04-15 23:59 | 59.20999 | -140.52318 | 5992 ft | 156 kts | 292° |
| 2026-04-15 23:59 | 59.21471 | -140.54217 | 5990 ft | 156 kts | 292° |
| 2026-04-16 00:00 | 59.21943 | -140.56126 | 5989 ft | 156 kts | 292° |
| 2026-04-16 00:00 | 59.22414 | -140.58027 | 5988 ft | 156 kts | 292° |
| 2026-04-16 00:00 | 59.22731 | -140.59286 | 5988 ft | 156 kts | 293° |
| 2026-04-16 00:00 | 59.23204 | -140.61191 | 5988 ft | 156 kts | 292° |
| 2026-04-16 00:01 | 59.23675 | -140.63087 | 5990 ft | 156 kts | 292° |
| 2026-04-16 00:01 | 59.24148 | -140.64999 | 5991 ft | 156 kts | 293° |
| 2026-04-16 00:01 | 59.24621 | -140.66907 | 5988 ft | 156 kts | 292° |
| 2026-04-16 00:01 | 59.25094 | -140.68815 | 5988 ft | 156 kts | 292° |
| 2026-04-16 00:02 | 59.25565 | -140.70721 | 5988 ft | 156 kts | 293° |
| 2026-04-16 00:02 | 59.26037 | -140.72633 | 5989 ft | 156 kts | 292° |
| 2026-04-16 00:02 | 59.26510 | -140.74546 | 5989 ft | 156 kts | 292° |
| 2026-04-16 00:02 | 59.26980 | -140.76454 | 5989 ft | 156 kts | 292° |
| 2026-04-16 00:03 | 59.27452 | -140.78370 | 5989 ft | 156 kts | 292° |
| 2026-04-16 00:03 | 59.27921 | -140.80273 | 5989 ft | 156 kts | 292° |
| 2026-04-16 00:03 | 59.28391 | -140.82185 | 5989 ft | 156 kts | 292° |
| 2026-04-16 00:03 | 59.28860 | -140.84096 | 5989 ft | 156 kts | 292° |
| 2026-04-16 00:04 | 59.29330 | -140.86007 | 5991 ft | 156 kts | 292° |
| 2026-04-16 00:04 | 59.29799 | -140.87918 | 5988 ft | 156 kts | 292° |
| 2026-04-16 00:04 | 59.30268 | -140.89832 | 5988 ft | 156 kts | 292° |
| 2026-04-16 00:04 | 59.30736 | -140.91743 | 5988 ft | 156 kts | 292° |
| 2026-04-16 00:05 | 59.31203 | -140.93652 | 5985 ft | 156 kts | 292° |
| 2026-04-16 00:05 | 59.31670 | -140.95565 | 5985 ft | 155 kts | 292° |
| 2026-04-16 00:05 | 59.32134 | -140.97460 | 5986 ft | 156 kts | 292° |
| 2026-04-16 00:05 | 59.32602 | -140.99380 | 5992 ft | 155 kts | 292° |
| 2026-04-16 00:06 | 59.33066 | -141.01307 | 5987 ft | 156 kts | 291° |
| 2026-04-16 00:06 | 59.33536 | -141.03231 | 5987 ft | 157 kts | 292° |
| 2026-04-16 00:06 | 59.34008 | -141.05155 | 5986 ft | 157 kts | 292° |
| 2026-04-16 00:06 | 59.34477 | -141.07082 | 5986 ft | 157 kts | 293° |
| 2026-04-16 00:07 | 59.34946 | -141.09006 | 5988 ft | 156 kts | 292° |
| 2026-04-16 00:07 | 59.35409 | -141.10932 | 5987 ft | 156 kts | 293° |
| 2026-04-16 00:07 | 59.35877 | -141.12851 | 5988 ft | 156 kts | 292° |
| 2026-04-16 00:07 | 59.36345 | -141.14777 | 5987 ft | 157 kts | 293° |
| 2026-04-16 00:08 | 59.36806 | -141.16712 | 5987 ft | 157 kts | 293° |
| 2026-04-16 00:08 | 59.37276 | -141.18646 | 5986 ft | 157 kts | 292° |
| 2026-04-16 00:08 | 59.37747 | -141.20579 | 5991 ft | 157 kts | 292° |
| 2026-04-16 00:08 | 59.38213 | -141.22500 | 5990 ft | 157 kts | 293° |
| 2026-04-16 00:09 | 59.38682 | -141.24444 | 5991 ft | 157 kts | 291° |
| 2026-04-16 00:09 | 59.39149 | -141.26388 | 5991 ft | 157 kts | 293° |
| 2026-04-16 00:09 | 59.39617 | -141.28325 | 5991 ft | 157 kts | 293° |
| 2026-04-16 00:09 | 59.40081 | -141.30260 | 5992 ft | 157 kts | 291° |
| 2026-04-16 00:10 | 59.40539 | -141.32157 | 5992 ft | 158 kts | 292° |
| 2026-04-16 00:10 | 59.41017 | -141.34154 | 5990 ft | 158 kts | 292° |
| 2026-04-16 00:10 | 59.41486 | -141.36105 | 5991 ft | 158 kts | 292° |
| 2026-04-16 00:10 | 59.41955 | -141.38059 | 5992 ft | 158 kts | 292° |
| 2026-04-16 00:11 | 59.42418 | -141.40020 | 5992 ft | 158 kts | 292° |
| 2026-04-16 00:11 | 59.42889 | -141.41966 | 5992 ft | 158 kts | 293° |
| 2026-04-16 00:11 | 59.43355 | -141.43910 | 5993 ft | 157 kts | 293° |
| 2026-04-16 00:11 | 59.43820 | -141.45858 | 5990 ft | 158 kts | 293° |
| 2026-04-16 00:12 | 59.44284 | -141.47807 | 5986 ft | 157 kts | 292° |
| 2026-04-16 00:12 | 59.44748 | -141.49756 | 5986 ft | 158 kts | 291° |
| 2026-04-16 00:12 | 59.45215 | -141.51708 | 5987 ft | 158 kts | 291° |
| 2026-04-16 00:12 | 59.45680 | -141.53669 | 5987 ft | 158 kts | 292° |
| 2026-04-16 00:13 | 59.46138 | -141.55601 | 5990 ft | 158 kts | 293° |
| 2026-04-16 00:13 | 59.46599 | -141.57557 | 5987 ft | 158 kts | 291° |
| 2026-04-16 00:13 | 59.47061 | -141.59526 | 5987 ft | 159 kts | 294° |
| 2026-04-16 00:13 | 59.47539 | -141.61492 | 5988 ft | 159 kts | 294° |
| 2026-04-16 00:14 | 59.48008 | -141.63467 | 5989 ft | 160 kts | 293° |
| 2026-04-16 00:14 | 59.48478 | -141.65451 | 5989 ft | 160 kts | 293° |
| 2026-04-16 00:14 | 59.48948 | -141.67438 | 5990 ft | 160 kts | 294° |
| 2026-04-16 00:14 | 59.49418 | -141.69427 | 5990 ft | 160 kts | 292° |
| 2026-04-16 00:15 | 59.49886 | -141.71413 | 5990 ft | 160 kts | 294° |
| 2026-04-16 00:15 | 59.50356 | -141.73402 | 5991 ft | 160 kts | 294° |
| 2026-04-16 00:15 | 59.50823 | -141.75387 | 5989 ft | 160 kts | 292° |
| 2026-04-16 00:15 | 59.51293 | -141.77371 | 5989 ft | 160 kts | 294° |
| 2026-04-16 00:16 | 59.51760 | -141.79358 | 5989 ft | 160 kts | 292° |
| 2026-04-16 00:16 | 59.52226 | -141.81349 | 5990 ft | 160 kts | 293° |
| 2026-04-16 00:16 | 59.52695 | -141.83347 | 5988 ft | 161 kts | 294° |
| 2026-04-16 00:16 | 59.53164 | -141.85346 | 5990 ft | 161 kts | 294° |
| 2026-04-16 00:17 | 59.53632 | -141.87340 | 5987 ft | 161 kts | 293° |
| 2026-04-16 00:17 | 59.54100 | -141.89336 | 5989 ft | 160 kts | 293° |
| 2026-04-16 00:17 | 59.54565 | -141.91331 | 5986 ft | 160 kts | 293° |
| 2026-04-16 00:17 | 59.55032 | -141.93328 | 5979 ft | 160 kts | 293° |
| 2026-04-16 00:18 | 59.55496 | -141.95316 | 5976 ft | 160 kts | 292° |
| 2026-04-16 00:18 | 59.55962 | -141.97316 | 5977 ft | 160 kts | 293° |
| 2026-04-16 00:18 | 59.56428 | -141.99308 | 5977 ft | 160 kts | 293° |
| 2026-04-16 00:18 | 59.56893 | -142.01307 | 5977 ft | 160 kts | 293° |
| 2026-04-16 00:19 | 59.57357 | -142.03301 | 5979 ft | 160 kts | 293° |
| 2026-04-16 00:19 | 59.57821 | -142.05298 | 5980 ft | 160 kts | 293° |
| 2026-04-16 00:19 | 59.58284 | -142.07294 | 5979 ft | 160 kts | 293° |
| 2026-04-16 00:19 | 59.58747 | -142.09289 | 5978 ft | 160 kts | 292° |
| 2026-04-16 00:20 | 59.59211 | -142.11292 | 5978 ft | 160 kts | 292° |
| 2026-04-16 00:20 | 59.59674 | -142.13293 | 5979 ft | 160 kts | 293° |
| 2026-04-16 00:20 | 59.60138 | -142.15287 | 5981 ft | 160 kts | 292° |
| 2026-04-16 00:20 | 59.60601 | -142.17303 | 5979 ft | 162 kts | 292° |
| 2026-04-16 00:21 | 59.61069 | -142.19331 | 5979 ft | 163 kts | 293° |
| 2026-04-16 00:21 | 59.61539 | -142.21367 | 5979 ft | 163 kts | 293° |
| 2026-04-16 00:21 | 59.62012 | -142.23419 | 5980 ft | 164 kts | 293° |
| 2026-04-16 00:21 | 59.62483 | -142.25462 | 5981 ft | 164 kts | 292° |
| 2026-04-16 00:22 | 59.62956 | -142.27522 | 5979 ft | 165 kts | 292° |
| 2026-04-16 00:22 | 59.63432 | -142.29589 | 5981 ft | 165 kts | 293° |
| 2026-04-16 00:22 | 59.63905 | -142.31649 | 5982 ft | 165 kts | 292° |
| 2026-04-16 00:22 | 59.64380 | -142.33717 | 5982 ft | 165 kts | 293° |
| 2026-04-16 00:23 | 59.64852 | -142.35783 | 5982 ft | 164 kts | 293° |
| 2026-04-16 00:23 | 59.65322 | -142.37836 | 5982 ft | 164 kts | 292° |
| 2026-04-16 00:23 | 59.65793 | -142.39894 | 5982 ft | 164 kts | 292° |
| 2026-04-16 00:23 | 59.66264 | -142.41956 | 5982 ft | 165 kts | 292° |
| 2026-04-16 00:24 | 59.66737 | -142.44031 | 5978 ft | 165 kts | 292° |
| 2026-04-16 00:24 | 59.67209 | -142.46098 | 5979 ft | 164 kts | 293° |
| 2026-04-16 00:24 | 59.67677 | -142.48160 | 5980 ft | 164 kts | 292° |
| 2026-04-16 00:24 | 59.68147 | -142.50222 | 5978 ft | 164 kts | 292° |
| 2026-04-16 00:25 | 59.68614 | -142.52275 | 5980 ft | 164 kts | 292° |
| 2026-04-16 00:25 | 59.69082 | -142.54331 | 5978 ft | 164 kts | 292° |
| 2026-04-16 00:25 | 59.69546 | -142.56384 | 5977 ft | 163 kts | 292° |
| 2026-04-16 00:25 | 59.70011 | -142.58432 | 5975 ft | 163 kts | 292° |
| 2026-04-16 00:26 | 59.70476 | -142.60488 | 5974 ft | 164 kts | 292° |
| 2026-04-16 00:26 | 59.70943 | -142.62546 | 5970 ft | 163 kts | 292° |
| 2026-04-16 00:26 | 59.71398 | -142.64571 | 5970 ft | 163 kts | 292° |
| 2026-04-16 00:26 | 59.71864 | -142.66625 | 5972 ft | 163 kts | 292° |
| 2026-04-16 00:27 | 59.72328 | -142.68679 | 5970 ft | 163 kts | 292° |
| 2026-04-16 00:27 | 59.72790 | -142.70731 | 5970 ft | 163 kts | 292° |
| 2026-04-16 00:27 | 59.73255 | -142.72792 | 5971 ft | 163 kts | 292° |
| 2026-04-16 00:27 | 59.73719 | -142.74855 | 5974 ft | 164 kts | 292° |
| 2026-04-16 00:28 | 59.74184 | -142.76930 | 5972 ft | 165 kts | 291° |
| 2026-04-16 00:28 | 59.74651 | -142.79004 | 5973 ft | 165 kts | 292° |
| 2026-04-16 00:28 | 59.75116 | -142.81078 | 5973 ft | 165 kts | 292° |
| 2026-04-16 00:28 | 59.75584 | -142.83167 | 5974 ft | 165 kts | 292° |
| 2026-04-16 00:29 | 59.76048 | -142.85238 | 5980 ft | 164 kts | 292° |
| 2026-04-16 00:29 | 59.76512 | -142.87318 | 5977 ft | 165 kts | 291° |
| 2026-04-16 00:29 | 59.76977 | -142.89396 | 5975 ft | 165 kts | 292° |
| 2026-04-16 00:29 | 59.77443 | -142.91485 | 5975 ft | 166 kts | 291° |
| 2026-04-16 00:30 | 59.77910 | -142.93578 | 5973 ft | 166 kts | 291° |
| 2026-04-16 00:30 | 59.78377 | -142.95675 | 5973 ft | 166 kts | 291° |
| 2026-04-16 00:30 | 59.78836 | -142.97739 | 5971 ft | 166 kts | 291° |
| 2026-04-16 00:30 | 59.79307 | -142.99857 | 5971 ft | 165 kts | 291° |
| 2026-04-16 00:31 | 59.79765 | -143.01917 | 5970 ft | 165 kts | 292° |
| 2026-04-16 00:31 | 59.80234 | -143.04034 | 5970 ft | 165 kts | 291° |
| 2026-04-16 00:31 | 59.80696 | -143.06115 | 5970 ft | 165 kts | 291° |
| 2026-04-16 00:31 | 59.81160 | -143.08215 | 5971 ft | 166 kts | 291° |
| 2026-04-16 00:32 | 59.81625 | -143.10312 | 5974 ft | 166 kts | 291° |
| 2026-04-16 00:32 | 59.82088 | -143.12407 | 5972 ft | 166 kts | 291° |
| 2026-04-16 00:32 | 59.82553 | -143.14515 | 5972 ft | 166 kts | 291° |
| 2026-04-16 00:32 | 59.83017 | -143.16619 | 5973 ft | 166 kts | 291° |
| 2026-04-16 00:33 | 59.83480 | -143.18720 | 5970 ft | 166 kts | 291° |
| 2026-04-16 00:33 | 59.83942 | -143.20820 | 5970 ft | 166 kts | 291° |
| 2026-04-16 00:33 | 59.84397 | -143.22887 | 5970 ft | 165 kts | 291° |
| 2026-04-16 00:33 | 59.84863 | -143.25010 | 5970 ft | 166 kts | 291° |
| 2026-04-16 00:34 | 59.85325 | -143.27118 | 5974 ft | 166 kts | 291° |
| 2026-04-16 00:34 | 59.85782 | -143.29195 | 5974 ft | 166 kts | 291° |
| 2026-04-16 00:34 | 59.86244 | -143.31310 | 5975 ft | 167 kts | 291° |
| 2026-04-16 00:34 | 59.86708 | -143.33426 | 5972 ft | 167 kts | 291° |
| 2026-04-16 00:35 | 59.87169 | -143.35537 | 5968 ft | 166 kts | 291° |
| 2026-04-16 00:35 | 59.87633 | -143.37666 | 5967 ft | 165 kts | 291° |
| 2026-04-16 00:35 | 59.88085 | -143.39737 | 5966 ft | 165 kts | 291° |
| 2026-04-16 00:35 | 59.88547 | -143.41856 | 5966 ft | 165 kts | 291° |
| 2026-04-16 00:36 | 59.89003 | -143.43950 | 5964 ft | 165 kts | 291° |
| 2026-04-16 00:36 | 59.89461 | -143.46050 | 5964 ft | 165 kts | 291° |
| 2026-04-16 00:36 | 59.89911 | -143.48127 | 5966 ft | 166 kts | 291° |
| 2026-04-16 00:36 | 59.90377 | -143.50269 | 5967 ft | 167 kts | 291° |
| 2026-04-16 00:37 | 59.90830 | -143.52365 | 5968 ft | 167 kts | 290° |
| 2026-04-16 00:37 | 59.91291 | -143.54491 | 5968 ft | 167 kts | 291° |
| 2026-04-16 00:37 | 59.91753 | -143.56625 | 5968 ft | 168 kts | 291° |
| 2026-04-16 00:37 | 59.92214 | -143.58758 | 5969 ft | 168 kts | 291° |
| 2026-04-16 00:38 | 59.92677 | -143.60901 | 5967 ft | 167 kts | 291° |
| 2026-04-16 00:38 | 59.93135 | -143.63027 | 5967 ft | 167 kts | 291° |
| 2026-04-16 00:38 | 59.93592 | -143.65150 | 5968 ft | 167 kts | 291° |
| 2026-04-16 00:38 | 59.94051 | -143.67279 | 5967 ft | 167 kts | 291° |
| 2026-04-16 00:39 | 59.94509 | -143.69406 | 5967 ft | 167 kts | 291° |
| 2026-04-16 00:39 | 59.94969 | -143.71542 | 5967 ft | 168 kts | 291° |
| 2026-04-16 00:39 | 59.95426 | -143.73679 | 5965 ft | 167 kts | 290° |
| 2026-04-16 00:39 | 59.95881 | -143.75804 | 5967 ft | 166 kts | 290° |
| 2026-04-16 00:40 | 59.96335 | -143.77925 | 5966 ft | 166 kts | 291° |
| 2026-04-16 00:40 | 59.96786 | -143.80033 | 5967 ft | 165 kts | 291° |
| 2026-04-16 00:40 | 59.97235 | -143.82134 | 5967 ft | 164 kts | 291° |
| 2026-04-16 00:40 | 59.97681 | -143.84222 | 5963 ft | 163 kts | 291° |
| 2026-04-16 00:41 | 59.98124 | -143.86303 | 5968 ft | 162 kts | 291° |
| 2026-04-16 00:41 | 59.98567 | -143.88380 | 5963 ft | 162 kts | 291° |
| 2026-04-16 00:41 | 59.99008 | -143.90451 | 5960 ft | 163 kts | 291° |
| 2026-04-16 00:41 | 59.99451 | -143.92532 | 5960 ft | 163 kts | 291° |
| 2026-04-16 00:42 | 59.99894 | -143.94622 | 5959 ft | 163 kts | 291° |
| 2026-04-16 00:42 | 60.00337 | -143.96705 | 5960 ft | 163 kts | 291° |
| 2026-04-16 00:42 | 60.00778 | -143.98789 | 5960 ft | 163 kts | 291° |
| 2026-04-16 00:42 | 60.01219 | -144.00868 | 5960 ft | 162 kts | 291° |
| 2026-04-16 00:43 | 60.01658 | -144.02947 | 5958 ft | 162 kts | 291° |
| 2026-04-16 00:43 | 60.02099 | -144.05027 | 5956 ft | 162 kts | 291° |
| 2026-04-16 00:43 | 60.02537 | -144.07107 | 5956 ft | 163 kts | 291° |
| 2026-04-16 00:43 | 60.02980 | -144.09204 | 5956 ft | 163 kts | 291° |
| 2026-04-16 00:44 | 60.03419 | -144.11290 | 5955 ft | 163 kts | 291° |
| 2026-04-16 00:44 | 60.03712 | -144.12682 | 5955 ft | 163 kts | 291° |
| 2026-04-16 00:44 | 60.04300 | -144.15475 | 5955 ft | 163 kts | 291° |
| 2026-04-16 00:44 | 60.04590 | -144.16858 | 5954 ft | 162 kts | 291° |
| 2026-04-16 00:45 | 60.05025 | -144.18932 | 5955 ft | 162 kts | 291° |
| 2026-04-16 00:45 | 60.05461 | -144.21009 | 5956 ft | 162 kts | 291° |
| 2026-04-16 00:45 | 60.05896 | -144.23086 | 5955 ft | 162 kts | 291° |
| 2026-04-16 00:45 | 60.06332 | -144.25166 | 5956 ft | 162 kts | 291° |
| 2026-04-16 00:46 | 60.06766 | -144.27241 | 5957 ft | 162 kts | 291° |
| 2026-04-16 00:46 | 60.07201 | -144.29325 | 5961 ft | 162 kts | 291° |
| 2026-04-16 00:46 | 60.07634 | -144.31406 | 5957 ft | 162 kts | 291° |
| 2026-04-16 00:46 | 60.08070 | -144.33491 | 5957 ft | 162 kts | 291° |
| 2026-04-16 00:47 | 60.08504 | -144.35575 | 5962 ft | 162 kts | 291° |
| 2026-04-16 00:47 | 60.08937 | -144.37656 | 5961 ft | 162 kts | 291° |
| 2026-04-16 00:47 | 60.09370 | -144.39740 | 5961 ft | 162 kts | 291° |
| 2026-04-16 00:47 | 60.09803 | -144.41829 | 5960 ft | 163 kts | 291° |
| 2026-04-16 00:48 | 60.10238 | -144.43922 | 5963 ft | 163 kts | 291° |
| 2026-04-16 00:48 | 60.10671 | -144.46015 | 5958 ft | 163 kts | 291° |
| 2026-04-16 00:48 | 60.11106 | -144.48114 | 5959 ft | 163 kts | 291° |
| 2026-04-16 00:48 | 60.11540 | -144.50215 | 5962 ft | 163 kts | 291° |
| 2026-04-16 00:49 | 60.11973 | -144.52313 | 5961 ft | 163 kts | 291° |
| 2026-04-16 00:50 | 60.15006 | -144.67055 | 5953 ft | 163 kts | 291° |
| 2026-04-16 00:51 | 60.15430 | -144.69126 | 5959 ft | 164 kts | 291° |
| 2026-04-16 00:51 | 60.15873 | -144.71289 | 5952 ft | 164 kts | 291° |
| 2026-04-16 00:51 | 60.16306 | -144.73405 | 5951 ft | 164 kts | 291° |
| 2026-04-16 00:51 | 60.16739 | -144.75528 | 5954 ft | 164 kts | 291° |
| 2026-04-16 00:52 | 60.17170 | -144.77641 | 5953 ft | 164 kts | 290° |
| 2026-04-16 00:52 | 60.17600 | -144.79752 | 5953 ft | 163 kts | 291° |
| 2026-04-16 00:52 | 60.18029 | -144.81861 | 5952 ft | 163 kts | 290° |
| 2026-04-16 00:52 | 60.18459 | -144.83973 | 5952 ft | 163 kts | 290° |
| 2026-04-16 00:53 | 60.18889 | -144.86091 | 5952 ft | 163 kts | 290° |
| 2026-04-16 00:53 | 60.19318 | -144.88206 | 5954 ft | 163 kts | 290° |
| 2026-04-16 00:53 | 60.19747 | -144.90321 | 5952 ft | 164 kts | 290° |
| 2026-04-16 00:53 | 60.20176 | -144.92438 | 5952 ft | 164 kts | 290° |
| 2026-04-16 00:54 | 60.20605 | -144.94556 | 5950 ft | 164 kts | 290° |
| 2026-04-16 00:54 | 60.21032 | -144.96676 | 5954 ft | 164 kts | 290° |
| 2026-04-16 00:54 | 60.21463 | -144.98806 | 5955 ft | 165 kts | 290° |
| 2026-04-16 00:54 | 60.21893 | -145.00953 | 5953 ft | 166 kts | 290° |
| 2026-04-16 00:55 | 60.22323 | -145.03104 | 5952 ft | 165 kts | 290° |
| 2026-04-16 00:55 | 60.22755 | -145.05237 | 5947 ft | 164 kts | 291° |
| 2026-04-16 00:55 | 60.23183 | -145.07359 | 5947 ft | 164 kts | 290° |
| 2026-04-16 00:55 | 60.23612 | -145.09494 | 5949 ft | 165 kts | 290° |
| 2026-04-16 00:56 | 60.24044 | -145.11637 | 5954 ft | 166 kts | 290° |
| 2026-04-16 00:56 | 60.24474 | -145.13786 | 5956 ft | 166 kts | 290° |
| 2026-04-16 00:56 | 60.24905 | -145.15941 | 5955 ft | 165 kts | 290° |
| 2026-04-16 00:56 | 60.25334 | -145.18089 | 5956 ft | 165 kts | 290° |
| 2026-04-16 00:57 | 60.26191 | -145.22379 | 5955 ft | 165 kts | 290° |
| 2026-04-16 00:57 | 60.26618 | -145.24524 | 5950 ft | 165 kts | 290° |
| 2026-04-16 00:57 | 60.27045 | -145.26671 | 5951 ft | 165 kts | 290° |
| 2026-04-16 00:58 | 60.27471 | -145.28806 | 5942 ft | 164 kts | 290° |
| 2026-04-16 00:58 | 60.27894 | -145.30942 | 5942 ft | 164 kts | 290° |
| 2026-04-16 00:58 | 60.28317 | -145.33069 | 5945 ft | 164 kts | 290° |
| 2026-04-16 00:58 | 60.28738 | -145.35197 | 5944 ft | 163 kts | 290° |
| 2026-04-16 00:59 | 60.29160 | -145.37326 | 5944 ft | 163 kts | 290° |
| 2026-04-16 00:59 | 60.29581 | -145.39456 | 5947 ft | 164 kts | 290° |
| 2026-04-16 00:59 | 60.30005 | -145.41597 | 5945 ft | 165 kts | 290° |
| 2026-04-16 00:59 | 60.30428 | -145.43739 | 5951 ft | 165 kts | 290° |
| 2026-04-16 01:00 | 60.30851 | -145.45885 | 5948 ft | 164 kts | 290° |
| 2026-04-16 01:00 | 60.31272 | -145.48025 | 5944 ft | 164 kts | 290° |
| 2026-04-16 01:00 | 60.31692 | -145.50159 | 5942 ft | 163 kts | 290° |
| 2026-04-16 01:00 | 60.32109 | -145.52287 | 5939 ft | 163 kts | 290° |
| 2026-04-16 01:01 | 60.32528 | -145.54415 | 5941 ft | 163 kts | 290° |
| 2026-04-16 01:01 | 60.32946 | -145.56545 | 5942 ft | 163 kts | 290° |
| 2026-04-16 01:01 | 60.33361 | -145.58670 | 5939 ft | 163 kts | 290° |
| 2026-04-16 01:01 | 60.33772 | -145.60768 | 5938 ft | 163 kts | 290° |
| 2026-04-16 01:02 | 60.34186 | -145.62887 | 5936 ft | 163 kts | 290° |
| 2026-04-16 01:02 | 60.34603 | -145.65019 | 5940 ft | 163 kts | 290° |
| 2026-04-16 01:02 | 60.35019 | -145.67149 | 5940 ft | 163 kts | 290° |
| 2026-04-16 01:02 | 60.35436 | -145.69289 | 5946 ft | 164 kts | 290° |
| 2026-04-16 01:03 | 60.35854 | -145.71437 | 5942 ft | 164 kts | 290° |
| 2026-04-16 01:03 | 60.36272 | -145.73586 | 5947 ft | 164 kts | 290° |
| 2026-04-16 01:03 | 60.36688 | -145.75728 | 5950 ft | 164 kts | 290° |
| 2026-04-16 01:03 | 60.37108 | -145.77887 | 5948 ft | 165 kts | 289° |
| 2026-04-16 01:04 | 60.37527 | -145.80059 | 5953 ft | 166 kts | 289° |
| 2026-04-16 01:04 | 60.37949 | -145.82240 | 5945 ft | 167 kts | 289° |
| 2026-04-16 01:04 | 60.38371 | -145.84421 | 5949 ft | 166 kts | 289° |
| 2026-04-16 01:04 | 60.38793 | -145.86603 | 5952 ft | 168 kts | 289° |
| 2026-04-16 01:05 | 60.39221 | -145.88819 | 5953 ft | 171 kts | 289° |
| 2026-04-16 01:05 | 60.39656 | -145.91073 | 5951 ft | 172 kts | 289° |
| 2026-04-16 01:05 | 60.40091 | -145.93329 | 5955 ft | 173 kts | 289° |
| 2026-04-16 01:05 | 60.40529 | -145.95600 | 5958 ft | 173 kts | 289° |
| 2026-04-16 01:06 | 60.40965 | -145.97870 | 5946 ft | 172 kts | 289° |
| 2026-04-16 01:06 | 60.41395 | -146.00117 | 5945 ft | 170 kts | 289° |
| 2026-04-16 01:06 | 60.41818 | -146.02332 | 5953 ft | 168 kts | 289° |
| 2026-04-16 01:06 | 60.42240 | -146.04539 | 5939 ft | 168 kts | 289° |
| 2026-04-16 01:07 | 60.42661 | -146.06742 | 5946 ft | 168 kts | 288° |
| 2026-04-16 01:07 | 60.43082 | -146.08945 | 5944 ft | 168 kts | 289° |
| 2026-04-16 01:07 | 60.43502 | -146.11146 | 5941 ft | 168 kts | 289° |
| 2026-04-16 01:07 | 60.43918 | -146.13332 | 5940 ft | 166 kts | 289° |
| 2026-04-16 01:08 | 60.44332 | -146.15505 | 5946 ft | 164 kts | 289° |
| 2026-04-16 01:08 | 60.44741 | -146.17658 | 5944 ft | 164 kts | 289° |
| 2026-04-16 01:08 | 60.45151 | -146.19817 | 5944 ft | 164 kts | 289° |
| 2026-04-16 01:08 | 60.45561 | -146.21976 | 5945 ft | 164 kts | 289° |
| 2026-04-16 01:09 | 60.45971 | -146.24141 | 5945 ft | 165 kts | 289° |
| 2026-04-16 01:09 | 60.46381 | -146.26302 | 5949 ft | 164 kts | 289° |
| 2026-04-16 01:09 | 60.46787 | -146.28460 | 5954 ft | 165 kts | 289° |
| 2026-04-16 01:09 | 60.47197 | -146.30627 | 5964 ft | 164 kts | 288° |
| 2026-04-16 01:10 | 60.47606 | -146.32793 | 5963 ft | 163 kts | 288° |
| 2026-04-16 01:10 | 60.48011 | -146.34942 | 5962 ft | 164 kts | 288° |
| 2026-04-16 01:10 | 60.48419 | -146.37110 | 5959 ft | 164 kts | 288° |
| 2026-04-16 01:10 | 60.48826 | -146.39272 | 5965 ft | 164 kts | 287° |
| 2026-04-16 01:11 | 60.49231 | -146.41438 | 5967 ft | 164 kts | 288° |
| 2026-04-16 01:11 | 60.49638 | -146.43593 | 5963 ft | 164 kts | 288° |
| 2026-04-16 01:11 | 60.50044 | -146.45754 | 5966 ft | 164 kts | 288° |
| 2026-04-16 01:11 | 60.50449 | -146.47922 | 5964 ft | 164 kts | 288° |
| 2026-04-16 01:12 | 60.50854 | -146.50085 | 5967 ft | 164 kts | 288° |
| 2026-04-16 01:12 | 60.51259 | -146.52255 | 5966 ft | 165 kts | 288° |
| 2026-04-16 01:12 | 60.51660 | -146.54403 | 5971 ft | 165 kts | 288° |
| 2026-04-16 01:12 | 60.52073 | -146.56619 | 5964 ft | 165 kts | 288° |
| 2026-04-16 01:13 | 60.52478 | -146.58798 | 5966 ft | 165 kts | 288° |
| 2026-04-16 01:13 | 60.52884 | -146.60980 | 5969 ft | 166 kts | 288° |
| 2026-04-16 01:13 | 60.53295 | -146.63185 | 5970 ft | 169 kts | 288° |
| 2026-04-16 01:13 | 60.53715 | -146.65435 | 5967 ft | 170 kts | 288° |
| 2026-04-16 01:14 | 60.54132 | -146.67692 | 5964 ft | 172 kts | 288° |
| 2026-04-16 01:14 | 60.54550 | -146.69974 | 5971 ft | 172 kts | 288° |
| 2026-04-16 01:14 | 60.54968 | -146.72220 | 5956 ft | 173 kts | 288° |
| 2026-04-16 01:14 | 60.55390 | -146.74494 | 5958 ft | 171 kts | 288° |
| 2026-04-16 01:15 | 60.55805 | -146.76755 | 5940 ft | 170 kts | 288° |
| 2026-04-16 01:15 | 60.56221 | -146.79016 | 5939 ft | 167 kts | 288° |
| 2026-04-16 01:15 | 60.56620 | -146.81180 | 5940 ft | 165 kts | 288° |
| 2026-04-16 01:15 | 60.57019 | -146.83355 | 5941 ft | 164 kts | 288° |
| 2026-04-16 01:16 | 60.57417 | -146.85524 | 5937 ft | 164 kts | 288° |
| 2026-04-16 01:16 | 60.57816 | -146.87698 | 5938 ft | 164 kts | 288° |
| 2026-04-16 01:16 | 60.58212 | -146.89866 | 5936 ft | 164 kts | 288° |
| 2026-04-16 01:16 | 60.58609 | -146.92031 | 5938 ft | 164 kts | 288° |
| 2026-04-16 01:17 | 60.59004 | -146.94198 | 5939 ft | 164 kts | 288° |
| 2026-04-16 01:17 | 60.59403 | -146.96376 | 5937 ft | 164 kts | 288° |
| 2026-04-16 01:17 | 60.59800 | -146.98554 | 5941 ft | 164 kts | 288° |
| 2026-04-16 01:17 | 60.60198 | -147.00737 | 5941 ft | 164 kts | 288° |
| 2026-04-16 01:18 | 60.60593 | -147.02911 | 5943 ft | 164 kts | 288° |
| 2026-04-16 01:18 | 60.60988 | -147.05078 | 5946 ft | 164 kts | 288° |
| 2026-04-16 01:18 | 60.61382 | -147.07254 | 5954 ft | 164 kts | 288° |
| 2026-04-16 01:18 | 60.61777 | -147.09429 | 5949 ft | 164 kts | 288° |
| 2026-04-16 01:19 | 60.62172 | -147.11606 | 5952 ft | 164 kts | 288° |
| 2026-04-16 01:19 | 60.62565 | -147.13780 | 5944 ft | 164 kts | 288° |
| 2026-04-16 01:19 | 60.62957 | -147.15953 | 5945 ft | 163 kts | 288° |
| 2026-04-16 01:19 | 60.63345 | -147.18109 | 5950 ft | 164 kts | 288° |
| 2026-04-16 01:20 | 60.63744 | -147.20312 | 5954 ft | 165 kts | 288° |
| 2026-04-16 01:20 | 60.64140 | -147.22507 | 5948 ft | 165 kts | 288° |
| 2026-04-16 01:20 | 60.64534 | -147.24695 | 5947 ft | 165 kts | 288° |
| 2026-04-16 01:20 | 60.64927 | -147.26889 | 5944 ft | 164 kts | 288° |
| 2026-04-16 01:21 | 60.65319 | -147.29081 | 5950 ft | 165 kts | 288° |
| 2026-04-16 01:21 | 60.65714 | -147.31274 | 5955 ft | 165 kts | 288° |
| 2026-04-16 01:21 | 60.66109 | -147.33472 | 5935 ft | 164 kts | 291° |
| 2026-04-16 01:21 | 60.66510 | -147.35611 | 5935 ft | 160 kts | 287° |
| 2026-04-16 01:22 | 60.66868 | -147.37766 | 5935 ft | 161 kts | 287° |
| 2026-04-16 01:22 | 60.67252 | -147.39917 | 5935 ft | 162 kts | 288° |
| 2026-04-16 01:22 | 60.67640 | -147.42076 | 5935 ft | 163 kts | 288° |
| 2026-04-16 01:22 | 60.68051 | -147.44228 | 5932 ft | 162 kts | 290° |
| 2026-04-16 01:23 | 60.68419 | -147.46385 | 5934 ft | 160 kts | 288° |
| 2026-04-16 01:23 | 60.68786 | -147.48522 | 5938 ft | 160 kts | 289° |
| 2026-04-16 01:23 | 60.69165 | -147.50644 | 5939 ft | 159 kts | 289° |
| 2026-04-16 01:23 | 60.69542 | -147.52767 | 5934 ft | 158 kts | 288° |
| 2026-04-16 01:24 | 60.69913 | -147.54876 | 5927 ft | 158 kts | 289° |
| 2026-04-16 01:24 | 60.70284 | -147.56972 | 5926 ft | 157 kts | 288° |
| 2026-04-16 01:24 | 60.70650 | -147.59045 | 5926 ft | 157 kts | 288° |
| 2026-04-16 01:24 | 60.71027 | -147.61184 | 5927 ft | 159 kts | 288° |
| 2026-04-16 01:25 | 60.71392 | -147.63248 | 5930 ft | 159 kts | 288° |
| 2026-04-16 01:25 | 60.71774 | -147.65408 | 5933 ft | 159 kts | 289° |
| 2026-04-16 01:25 | 60.72154 | -147.67573 | 5931 ft | 160 kts | 288° |
| 2026-04-16 01:25 | 60.72523 | -147.69681 | 5930 ft | 159 kts | 288° |
| 2026-04-16 01:26 | 60.72896 | -147.71809 | 5931 ft | 159 kts | 288° |
| 2026-04-16 01:26 | 60.73269 | -147.73941 | 5929 ft | 159 kts | 288° |
| 2026-04-16 01:26 | 60.73643 | -147.76073 | 5929 ft | 159 kts | 288° |
| 2026-04-16 01:26 | 60.74016 | -147.78208 | 5936 ft | 160 kts | 288° |
| 2026-04-16 01:27 | 60.74393 | -147.80358 | 5929 ft | 161 kts | 288° |
| 2026-04-16 01:27 | 60.74771 | -147.82522 | 5933 ft | 162 kts | 288° |
| 2026-04-16 01:27 | 60.75148 | -147.84684 | 5933 ft | 162 kts | 288° |
| 2026-04-16 01:27 | 60.75522 | -147.86841 | 5931 ft | 161 kts | 288° |
| 2026-04-16 01:28 | 60.75898 | -147.89003 | 5934 ft | 161 kts | 288° |
| 2026-04-16 01:28 | 60.76272 | -147.91164 | 5936 ft | 161 kts | 288° |
| 2026-04-16 01:28 | 60.76637 | -147.93333 | 5936 ft | 161 kts | 284° |
| 2026-04-16 01:28 | 60.76803 | -147.94811 | 5934 ft | 161 kts | 279° |
| 2026-04-16 01:29 | 60.77040 | -147.97044 | 5931 ft | 161 kts | 280° |
| 2026-04-16 01:29 | 60.77359 | -148.00056 | 5934 ft | 163 kts | 280° |
| 2026-04-16 01:29 | 60.77521 | -148.01567 | 5935 ft | 164 kts | 280° |
| 2026-04-16 01:29 | 60.77763 | -148.03850 | 5937 ft | 164 kts | 280° |
| 2026-04-16 01:30 | 60.78005 | -148.06124 | 5934 ft | 164 kts | 280° |
| 2026-04-16 01:30 | 60.78247 | -148.08408 | 5929 ft | 164 kts | 280° |
| 2026-04-16 01:30 | 60.78489 | -148.10680 | 5924 ft | 163 kts | 280° |
| 2026-04-16 01:30 | 60.78723 | -148.12936 | 5919 ft | 161 kts | 278° |
| 2026-04-16 01:31 | 60.78864 | -148.15182 | 5921 ft | 158 kts | 274° |
| 2026-04-16 01:31 | 60.78987 | -148.17406 | 5917 ft | 157 kts | 274° |
| 2026-04-16 01:31 | 60.79109 | -148.19614 | 5917 ft | 156 kts | 274° |
| 2026-04-16 01:31 | 60.79228 | -148.21812 | 5917 ft | 155 kts | 274° |
| 2026-04-16 01:32 | 60.79347 | -148.24007 | 5921 ft | 155 kts | 274° |
| 2026-04-16 01:32 | 60.79468 | -148.26208 | 5923 ft | 156 kts | 274° |
| 2026-04-16 01:32 | 60.79588 | -148.28412 | 5924 ft | 156 kts | 274° |
| 2026-04-16 01:32 | 60.79707 | -148.30621 | 5925 ft | 156 kts | 275° |
| 2026-04-16 01:33 | 60.79909 | -148.32814 | 5924 ft | 157 kts | 280° |
| 2026-04-16 01:33 | 60.80138 | -148.34990 | 5999 ft | 154 kts | 279° |
| 2026-04-16 01:33 | 60.80365 | -148.37148 | 6001 ft | 156 kts | 279° |
| 2026-04-16 01:33 | 60.80606 | -148.39332 | 6002 ft | 158 kts | 279° |
| 2026-04-16 01:34 | 60.80850 | -148.41543 | 6008 ft | 158 kts | 280° |
| 2026-04-16 01:34 | 60.81084 | -148.43745 | 6009 ft | 159 kts | 279° |
| 2026-04-16 01:34 | 60.81325 | -148.45948 | 6011 ft | 159 kts | 280° |
| 2026-04-16 01:34 | 60.81558 | -148.48158 | 6012 ft | 159 kts | 280° |
| 2026-04-16 01:35 | 60.81791 | -148.50366 | 6014 ft | 159 kts | 280° |
| 2026-04-16 01:35 | 60.82025 | -148.52578 | 6013 ft | 159 kts | 279° |
| 2026-04-16 01:35 | 60.82270 | -148.54805 | 6013 ft | 161 kts | 280° |
| 2026-04-16 01:35 | 60.82517 | -148.57059 | 6016 ft | 163 kts | 280° |
| 2026-04-16 01:36 | 60.82760 | -148.59322 | 6011 ft | 163 kts | 280° |
| 2026-04-16 01:36 | 60.82997 | -148.61580 | 6007 ft | 162 kts | 280° |
| 2026-04-16 01:36 | 60.83234 | -148.63818 | 6011 ft | 162 kts | 279° |
| 2026-04-16 01:36 | 60.83483 | -148.66086 | 6009 ft | 163 kts | 280° |
| 2026-04-16 01:37 | 60.83735 | -148.68325 | 5998 ft | 160 kts | 279° |
| 2026-04-16 01:37 | 60.83979 | -148.70547 | 6000 ft | 159 kts | 279° |
| 2026-04-16 01:37 | 60.84223 | -148.72752 | 6004 ft | 158 kts | 280° |
| 2026-04-16 01:37 | 60.84462 | -148.74967 | 6005 ft | 160 kts | 280° |
| 2026-04-16 01:38 | 60.84698 | -148.77218 | 6009 ft | 162 kts | 279° |
| 2026-04-16 01:38 | 60.84936 | -148.79459 | 6013 ft | 162 kts | 279° |
| 2026-04-16 01:38 | 60.85180 | -148.81737 | 6011 ft | 164 kts | 279° |
| 2026-04-16 01:38 | 60.85428 | -148.84019 | 6008 ft | 163 kts | 280° |
| 2026-04-16 01:39 | 60.85665 | -148.86282 | 6002 ft | 161 kts | 279° |
| 2026-04-16 01:39 | 60.85895 | -148.88515 | 5995 ft | 158 kts | 279° |
| 2026-04-16 01:39 | 60.86127 | -148.90712 | 5995 ft | 158 kts | 280° |
| 2026-04-16 01:39 | 60.86358 | -148.92874 | 5993 ft | 158 kts | 280° |
| 2026-04-16 01:40 | 60.86592 | -148.95108 | 5993 ft | 158 kts | 279° |
| 2026-04-16 01:40 | 60.86825 | -148.97314 | 5996 ft | 159 kts | 279° |
| 2026-04-16 01:40 | 60.87070 | -148.99540 | 6000 ft | 161 kts | 279° |
| 2026-04-16 01:40 | 60.87310 | -149.01786 | 5975 ft | 163 kts | 281° |
| 2026-04-16 01:41 | 60.87632 | -149.04053 | 5607 ft | 174 kts | 280° |
| 2026-04-16 01:41 | 60.88033 | -149.06470 | 5199 ft | 179 kts | 293° |
| 2026-04-16 01:41 | 60.88635 | -149.08638 | 4783 ft | 173 kts | 297° |
| 2026-04-16 01:41 | 60.89188 | -149.10801 | 4472 ft | 165 kts | 296° |
| 2026-04-16 01:42 | 60.89703 | -149.12925 | 4283 ft | 163 kts | 294° |
| 2026-04-16 01:42 | 60.90168 | -149.14958 | 4021 ft | 155 kts | 292° |
| 2026-04-16 01:42 | 60.90531 | -149.16931 | 4017 ft | 147 kts | 286° |
| 2026-04-16 01:42 | 60.90834 | -149.19044 | 3870 ft | 156 kts | 283° |
| 2026-04-16 01:43 | 60.91092 | -149.21168 | 3917 ft | 153 kts | 283° |
| 2026-04-16 01:43 | 60.91324 | -149.23346 | 3736 ft | 160 kts | 279° |
| 2026-04-16 01:43 | 60.91540 | -149.25563 | 3712 ft | 159 kts | 283° |
| 2026-04-16 01:43 | 60.91842 | -149.27765 | 3718 ft | 158 kts | 282° |
| 2026-04-16 01:44 | 60.92122 | -149.29910 | 3864 ft | 155 kts | 285° |
| 2026-04-16 01:44 | 60.92456 | -149.32059 | 3823 ft | 161 kts | 286° |
| 2026-04-16 01:44 | 60.92801 | -149.34227 | 3923 ft | 158 kts | 289° |
| 2026-04-16 01:44 | 60.93124 | -149.36393 | 3925 ft | 159 kts | 283° |
| 2026-04-16 01:45 | 60.93385 | -149.38564 | 3973 ft | 156 kts | 282° |
| 2026-04-16 01:45 | 60.93642 | -149.40731 | 4000 ft | 154 kts | 284° |
| 2026-04-16 01:45 | 60.93939 | -149.42834 | 4110 ft | 149 kts | 284° |
| 2026-04-16 01:45 | 60.94224 | -149.44881 | 4206 ft | 151 kts | 282° |
| 2026-04-16 01:46 | 60.94491 | -149.46973 | 4316 ft | 152 kts | 281° |
| 2026-04-16 01:46 | 60.94669 | -149.49154 | 4309 ft | 156 kts | 274° |
| 2026-04-16 01:46 | 60.94910 | -149.51321 | 4401 ft | 156 kts | 285° |
| 2026-04-16 01:46 | 60.95182 | -149.53545 | 4289 ft | 164 kts | 279° |
| 2026-04-16 01:47 | 60.95350 | -149.55834 | 4290 ft | 164 kts | 276° |
| 2026-04-16 01:47 | 60.95593 | -149.58157 | 4222 ft | 167 kts | 282° |
| 2026-04-16 01:47 | 60.95901 | -149.60427 | 4226 ft | 166 kts | 285° |
| 2026-04-16 01:47 | 60.96298 | -149.62690 | 4156 ft | 168 kts | 289° |
| 2026-04-16 01:48 | 60.96717 | -149.64887 | 4273 ft | 161 kts | 290° |
| 2026-04-16 01:48 | 60.97171 | -149.67027 | 4178 ft | 167 kts | 294° |
| 2026-04-16 01:48 | 60.97697 | -149.69148 | 4196 ft | 165 kts | 297° |
| 2026-04-16 01:48 | 60.98235 | -149.71214 | 4204 ft | 163 kts | 294° |
| 2026-04-16 01:49 | 60.98810 | -149.73276 | 4092 ft | 167 kts | 300° |
| 2026-04-16 01:49 | 60.99592 | -149.75065 | 4032 ft | 170 kts | 315° |
| 2026-04-16 01:49 | 61.00518 | -149.76626 | 3840 ft | 177 kts | 319° |
| 2026-04-16 01:49 | 61.01495 | -149.78083 | 3495 ft | 166 kts | 325° |
| 2026-04-16 01:50 | 61.02449 | -149.79251 | 3215 ft | 155 kts | 329° |
| 2026-04-16 01:50 | 61.03393 | -149.80211 | 3009 ft | 147 kts | 335° |
| 2026-04-16 01:50 | 61.04327 | -149.81107 | 3026 ft | 149 kts | 333° |
| 2026-04-16 01:50 | 61.05274 | -149.82138 | 2946 ft | 156 kts | 326° |
| 2026-04-16 01:51 | 61.06181 | -149.83342 | 3006 ft | 150 kts | 326° |
| 2026-04-16 01:51 | 61.07077 | -149.84443 | 2943 ft | 153 kts | 328° |
| 2026-04-16 01:51 | 61.07973 | -149.85558 | 2878 ft | 147 kts | 326° |
| 2026-04-16 01:51 | 61.08851 | -149.86776 | 2555 ft | 155 kts | 323° |
| 2026-04-16 01:52 | 61.09708 | -149.87989 | 2307 ft | 143 kts | 325° |
| 2026-04-16 01:52 | 61.10497 | -149.89092 | 2227 ft | 131 kts | 324° |
| 2026-04-16 01:52 | 61.11238 | -149.90184 | 2173 ft | 129 kts | 323° |
| 2026-04-16 01:52 | 61.11969 | -149.91258 | 2126 ft | 128 kts | 323° |
| 2026-04-16 01:53 | 61.12746 | -149.92133 | 2107 ft | 126 kts | 336° |
| 2026-04-16 01:53 | 61.13583 | -149.92716 | 2046 ft | 128 kts | 347° |
| 2026-04-16 01:53 | 61.14460 | -149.93131 | 2100 ft | 129 kts | 346° |
| 2026-04-16 01:53 | 61.15350 | -149.93547 | 2139 ft | 134 kts | 348° |
| 2026-04-16 01:54 | 61.16247 | -149.93920 | 2262 ft | 130 kts | 346° |
| 2026-04-16 01:54 | 61.17137 | -149.94353 | 2357 ft | 125 kts | 347° |
| 2026-04-16 01:54 | 61.17968 | -149.94726 | 2423 ft | 124 kts | 347° |
| 2026-04-16 01:54 | 61.18834 | -149.95074 | 2356 ft | 127 kts | 351° |
| 2026-04-16 01:55 | 61.19644 | -149.95412 | 2328 ft | 116 kts | 345° |
| 2026-04-16 01:55 | 61.20437 | -149.95824 | 2118 ft | 120 kts | 347° |
| 2026-04-16 01:55 | 61.21244 | -149.96297 | 1858 ft | 121 kts | 339° |
| 2026-04-16 01:55 | 61.22003 | -149.96884 | 1711 ft | 116 kts | 336° |
| 2026-04-16 01:56 | 61.22412 | -149.98147 | 1488 ft | 111 kts | 260° |
| 2026-04-16 01:56 | 61.22256 | -149.99695 | 1248 ft | 102 kts | 255° |
| 2026-04-16 01:56 | 61.21969 | -150.00982 | 956 ft | 98 kts | 230° |
| 2026-04-16 01:56 | 61.21443 | -150.01844 | 693 ft | 96 kts | 202° |
| 2026-04-16 01:57 | 61.20783 | -150.01948 | 421 ft | 96 kts | 163° |
| 2026-04-16 01:57 | 61.20151 | -150.01544 | 212 ft | 91 kts | 165° |
| 2026-04-16 01:57 | 61.19587 | -150.01239 | 137 ft | 75 kts | 162° |
| 2026-04-16 01:57 | 61.19139 | -150.00980 | 116 ft | 59 kts | 162° |
| 2026-04-16 01:58 | 61.18829 | -150.00807 | 118 ft | 41 kts | 168° |
| 2026-04-16 01:58 | 61.18653 | -150.00596 | 120 ft | 22 kts | 74° |
| 2026-04-16 01:58 | 61.18700 | -150.00236 | 119 ft | 29 kts | 72° |
| 2026-04-16 01:58 | 61.18816 | -150.00012 | 118 ft | 26 kts | 2° |
| 2026-04-16 01:59 | 61.18848 | -149.99869 | 119 ft | 0 kts | 75° |